Terminal Aerodrome Forecast
Issued by NWS

Home | Current Version | Previous Version | Text Only | Print | Product List | Glossary On
Versions: 1 2 3 4 5 6 7 8 9 10 11 12 13 14 15 16 17 18 19 20 21 22 23 24 25 26 27 28 29 30 31 32 33 34 35 36 37 38 39 40 41 42 43 44 45 46 47 48
000
FTUS45 KBOU 211140
TAFAPA
TAF
KAPA 211140Z 2112/2212 30008KT P6SM SCT120 BKN220
     FM211500 03015G22KT P6SM BKN060 BKN110
     FM211800 08012KT P6SM BKN050 BKN110
     FM212300 15007KT P6SM FEW060 SCT110
     FM220100 19008KT P6SM FEW110 SCT250=

USA.gov is the U.S. government's official web portal to all federal, state and local government web resources and services.